Time;durP1;ratioP1;P1;durP2;ratioP2;P2;SDS_P1;SDS_P2;PMS_P1;PMS_P2;Temp;Humidity;BMP_temperature;BMP_pressure;BME280_temperature;BME280_humidity;BME280_pressure;Samples;Min_cycle;Max_cycle;Signal;HPM_P1;HPM_P2
2022/01/14 00:01:50;;;;;;;;;;;;;;;0.61;100.00;99071.33;1646811;86;20094;-67
2022/01/14 00:04:16;;;;;;;;;;;;;;;0.62;100.00;99090.52;1639551;86;20120;-67
2022/01/14 00:06:42;;;;;;;;;;;;;;;0.65;100.00;99089.18;1635836;86;20184;-68
2022/01/14 00:09:11;;;;;;;;;;;;;;;0.66;100.00;99090.81;1657504;85;20079;-68
2022/01/14 00:11:41;;;;;;;;;;;;;;;0.67;100.00;99088.38;1659380;85;21202;-67
2022/01/14 00:14:19;;;;;;;;;;;;;;;0.65;100.00;99072.44;1633706;87;20120;-68
2022/01/14 00:16:36;;;;;;;;;;;;;;;0.67;100.00;99088.38;1631143;86;20148;-67
2022/01/14 00:19:02;;;;;;;;;;;;;;;0.68;100.00;99075.69;1638661;86;20470;-66
2022/01/14 00:21:29;;;;;;;;;;;;;;;0.68;100.00;99071.63;1637230;86;20156;-66
2022/01/14 00:32:11;;;;;;;;;;;;;;;0.70;100.00;99054.63;1647369;84;20464;-66
2022/01/14 00:34:35;;;;;;;;;;;;;;;0.69;100.00;99040.30;1669783;84;20442;-66
2022/01/14 00:37:02;;;;;;;;;;;;;;;0.70;100.00;99047.34;1669777;84;21160;-66
2022/01/14 00:39:29;;;;;;;;;;;;;;;0.71;100.00;99048.96;1666039;84;20109;-67
2022/01/14 00:41:55;;;;;;;;;;;;;;;0.74;100.00;99040.86;1690686;84;20181;-67
2022/01/14 00:44:22;;;;;;;;;;;;;;;0.74;100.00;99028.71;1686489;84;20211;-67
2022/01/14 00:46:49;;;;;;;;;;;;;;;0.77;100.00;99034.94;1672171;84;20175;-67
2022/01/14 00:49:16;;;;;;;;;;;;;;;0.77;100.00;99028.99;1655498;85;21184;-68
2022/01/14 00:51:42;;;;;;;;;;;;;;;0.78;100.00;99035.20;1653309;85;20181;-67
2022/01/14 00:54:09;;;;;;;;;;;;;;;0.82;100.00;99044.41;1655364;85;20101;-67
2022/01/14 00:59:15;;;;;;;;;;;;;;;0.83;100.00;99033.87;1660557;84;20488;-67
2022/01/14 01:01:44;;;;;;;;;;;;;;;0.84;100.00;99031.45;1663792;85;21185;-67
2022/01/14 01:04:15;;;;;;;;;;;;;;;0.86;100.00;99022.55;1666121;85;21655;-64
2022/01/14 01:06:41;;;;;;;;;;;;;;;0.88;100.00;99015.80;1669673;84;20142;-65
2022/01/14 01:09:12;;;;;;;;;;;;;;;0.90;100.00;99019.05;1680241;84;20653;-65
2022/01/14 01:11:49;;;;;;;;;;;;;;;0.90;100.00;99008.23;1675471;84;20213;-65
2022/01/14 01:14:19;;;;;;;;;;;;;;;0.92;100.00;99020.13;1671142;84;21055;-66
2022/01/14 01:16:40;;;;;;;;;;;;;;;0.92;100.00;99005.27;1680659;85;20089;-66
2022/01/14 01:19:06;;;;;;;;;;;;;;;0.91;100.00;99001.75;1648853;87;20130;-66
2022/01/14 01:21:34;;;;;;;;;;;;;;;0.91;100.00;98995.00;1669548;84;20459;-66
2022/01/14 01:24:00;;;;;;;;;;;;;;;0.92;100.00;98990.41;1671664;84;20166;-66
2022/01/14 01:26:39;;;;;;;;;;;;;;;0.92;100.00;98989.87;1661704;85;21179;-68
2022/01/14 01:31:40;;;;;;;;;;;;;;;0.94;100.00;98980.95;1676182;85;20444;-66
2022/01/14 01:34:16;;;;;;;;;;;;;;;0.93;100.00;98978.52;1664620;85;20427;-66
2022/01/14 01:36:44;;;;;;;;;;;;;;;0.95;100.00;98963.66;1672414;85;20476;-66
2022/01/14 01:39:12;;;;;;;;;;;;;;;0.95;100.00;98977.71;1663233;85;21265;-65
2022/01/14 01:41:40;;;;;;;;;;;;;;;0.95;100.00;98975.82;1664157;85;21674;-66
2022/01/14 01:44:07;;;;;;;;;;;;;;;0.94;100.00;98948.52;1642812;85;20163;-66
2022/01/14 01:46:37;;;;;;;;;;;;;;;0.96;100.00;98951.77;1675546;85;20271;-65
2022/01/14 01:49:05;;;;;;;;;;;;;;;0.95;100.00;98952.03;1654663;85;20157;-65
2022/01/14 01:51:31;;;;;;;;;;;;;;;0.95;100.00;98950.14;1662412;84;21180;-65
2022/01/14 01:53:58;;;;;;;;;;;;;;;0.93;100.00;98926.63;1667527;84;20418;-65
2022/01/14 01:56:24;;;;;;;;;;;;;;;0.95;100.00;98929.06;1668998;84;20176;-65
2022/01/14 01:58:52;;;;;;;;;;;;;;;0.94;100.00;98918.80;1663133;84;20157;-65
2022/01/14 02:01:18;;;;;;;;;;;;;;;0.94;100.00;98908.52;1676860;84;20116;-66
2022/01/14 02:03:44;;;;;;;;;;;;;;;0.92;100.00;98891.22;1665033;84;21204;-67
2022/01/14 02:06:10;;;;;;;;;;;;;;;0.93;100.00;98890.69;1668878;84;20463;-67
2022/01/14 02:08:36;;;;;;;;;;;;;;;0.92;100.00;98879.06;1649209;84;20172;-68
2022/01/14 02:11:04;;;;;;;;;;;;;;;0.93;100.00;98866.36;1660476;84;20098;-68
2022/01/14 02:13:32;;;;;;;;;;;;;;;0.94;100.00;98859.34;1643450;86;20208;-68
2022/01/14 02:18:35;;;;;;;;;;;;;;;0.95;100.00;98843.39;1654573;85;20201;-66
2022/01/14 02:23:48;;;;;;;;;;;;;;;0.97;100.00;98849.87;1661203;85;20149;-68
2022/01/14 02:26:13;;;;;;;;;;;;;;;0.97;100.00;98861.50;1642284;85;20175;-68
2022/01/14 02:28:42;;;;;;;;;;;;;;;0.98;100.00;98832.58;1639069;86;21203;-68
2022/01/14 02:31:08;;;;;;;;;;;;;;;1.00;100.00;98858.80;1659879;85;20474;-66
2022/01/14 02:33:34;;;;;;;;;;;;;;;1.03;100.00;98867.72;1659502;85;20263;-66
2022/01/14 02:36:00;;;;;;;;;;;;;;;1.05;100.00;98864.20;1659721;85;20138;-66
2022/01/14 02:38:27;;;;;;;;;;;;;;;1.08;100.00;98866.37;1658735;86;20149;-66
2022/01/14 02:40:53;;;;;;;;;;;;;;;1.08;100.00;98850.69;1645645;86;20609;-65
2022/01/14 02:43:19;;;;;;;;;;;;;;;1.10;100.00;98845.83;1638912;85;20232;-66
2022/01/14 02:45:55;;;;;;;;;;;;;;;1.11;100.00;98814.47;1654473;85;20169;-66
2022/01/14 02:48:19;;;;;;;;;;;;;;;1.11;100.00;98848.27;1648479;85;20094;-66
2022/01/14 02:51:07;;;;;;;;;;;;;;;1.11;100.00;98842.85;1654959;85;20137;-66
2022/01/14 02:56:09;;;;;;;;;;;;;;;1.12;100.00;98847.72;1650833;85;20094;-65
2022/01/14 02:58:36;;;;;;;;;;;;;;;1.13;100.00;98829.88;1636454;86;20197;-66
2022/01/14 03:01:07;;;;;;;;;;;;;;;1.12;100.00;98825.55;1659143;85;20189;-65
2022/01/14 03:03:34;;;;;;;;;;;;;;;1.11;100.00;98803.66;1642365;86;20125;-67
2022/01/14 03:06:01;;;;;;;;;;;;;;;1.11;100.00;98792.84;1639475;86;21097;-67
2022/01/14 03:08:28;;;;;;;;;;;;;;;1.09;100.00;98796.91;1637310;85;20223;-66
2022/01/14 03:10:58;;;;;;;;;;;;;;;1.08;100.00;98783.92;1646341;84;20188;-67
2022/01/14 03:13:26;;;;;;;;;;;;;;;1.08;100.00;98786.63;1647523;86;20470;-67
2022/01/14 03:15:53;;;;;;;;;;;;;;;1.06;100.00;98772.58;1663296;84;20676;-67
2022/01/14 03:18:30;;;;;;;;;;;;;;;1.07;100.00;98767.98;1665968;84;21854;-67
2022/01/14 03:20:53;;;;;;;;;;;;;;;1.07;100.00;98772.84;1664733;85;20193;-67
2022/01/14 03:23:19;;;;;;;;;;;;;;;1.08;100.00;98766.90;1669769;84;20113;-69
2022/01/14 03:25:48;;;;;;;;;;;;;;;1.06;100.00;98774.47;1662095;84;20146;-67
2022/01/14 03:28:17;;;;;;;;;;;;;;;1.08;100.00;98760.95;1668273;84;20173;-67
2022/01/14 03:30:43;;;;;;;;;;;;;;;1.08;100.00;98770.41;1662567;84;21211;-67
2022/01/14 03:33:10;;;;;;;;;;;;;;;1.09;100.00;98781.49;1635097;86;20120;-67
2022/01/14 03:35:36;;;;;;;;;;;;;;;1.09;100.00;98777.44;1670841;84;20296;-68
2022/01/14 03:38:03;;;;;;;;;;;;;;;1.10;100.00;98772.84;1671923;85;20167;-68
2022/01/14 03:40:30;;;;;;;;;;;;;;;1.09;100.00;98769.33;1658702;84;20124;-68
2022/01/14 03:42:56;;;;;;;;;;;;;;;1.10;100.00;98764.73;1672005;84;21129;-67
2022/01/14 03:45:22;;;;;;;;;;;;;;;1.10;100.00;98758.78;1654292;85;20134;-67
2022/01/14 03:47:51;;;;;;;;;;;;;;;1.13;100.00;98734.45;1665549;85;20189;-68
2022/01/14 03:50:17;;;;;;;;;;;;;;;1.11;100.00;98733.38;1655666;85;20133;-67
2022/01/14 03:52:43;;;;;;;;;;;;;;;1.11;100.00;98726.61;1652978;85;20125;-68
2022/01/14 03:55:11;;;;;;;;;;;;;;;1.13;100.00;98710.12;1656924;84;21162;-67
2022/01/14 03:57:37;;;;;;;;;;;;;;;1.12;100.00;98726.88;1652868;84;20126;-67
2022/01/14 04:00:04;;;;;;;;;;;;;;;1.14;100.00;98706.34;1646905;85;20454;-68
2022/01/14 04:02:32;;;;;;;;;;;;;;;1.16;100.00;98696.83;1655652;84;20201;-68
2022/01/14 04:04:58;;;;;;;;;;;;;;;1.18;100.00;98686.55;1649462;84;20142;-68
2022/01/14 04:07:24;;;;;;;;;;;;;;;1.19;100.00;98677.91;1666946;84;21260;-68
2022/01/14 04:09:50;;;;;;;;;;;;;;;1.19;100.00;98692.77;1671229;84;20167;-68
2022/01/14 04:12:29;;;;;;;;;;;;;;;1.19;100.00;98678.71;1641841;84;20120;-68
2022/01/14 04:17:13;;;;;;;;;;;;;;;1.20;100.00;98668.16;1649807;86;20205;-68
2022/01/14 04:19:39;;;;;;;;;;;;;;;1.21;100.00;98664.38;1643102;85;21201;-69
2022/01/14 04:22:06;;;;;;;;;;;;;;;1.22;100.00;98652.48;1618792;87;20170;-68
2022/01/14 04:24:33;;;;;;;;;;;;;;;1.23;100.00;98658.70;1593897;87;20111;-69
2022/01/14 04:26:59;;;;;;;;;;;;;;;1.25;100.00;98652.47;1586434;89;20632;-69
2022/01/14 04:29:25;;;;;;;;;;;;;;;1.25;100.00;98643.81;1631685;85;20465;-69
2022/01/14 04:31:51;;;;;;;;;;;;;;;1.26;100.00;98651.38;1630063;86;21089;-69
2022/01/14 04:34:18;;;;;;;;;;;;;;;1.26;100.00;98633.27;1600449;87;20765;-69
2022/01/14 04:36:44;;;;;;;;;;;;;;;1.28;100.00;98627.04;1592910;88;20172;-69
2022/01/14 04:39:10;;;;;;;;;;;;;;;1.29;100.00;98612.44;1596054;88;20109;-68
2022/01/14 04:41:37;;;;;;;;;;;;;;;1.30;100.00;98611.89;1603684;88;20236;-68
2022/01/14 04:44:05;;;;;;;;;;;;;;;1.31;100.00;98604.05;1593345;87;21183;-69
2022/01/14 04:49:10;;;;;;;;;;;;;;;1.32;100.00;98607.82;1648129;85;20117;-68
2022/01/14 04:51:38;;;;;;;;;;;;;;;1.32;100.00;98626.75;1662514;84;20492;-68
2022/01/14 04:54:04;;;;;;;;;;;;;;;1.33;100.00;98624.31;1630903;86;20193;-68
2022/01/14 04:56:33;;;;;;;;;;;;;;;1.33;100.00;98620.26;1622417;87;21190;-68
2022/01/14 04:58:59;;;;;;;;;;;;;;;1.34;100.00;98625.12;1623141;87;20117;-68
2022/01/14 05:01:25;;;;;;;;;;;;;;;1.33;100.00;98605.38;1674352;84;20226;-68
2022/01/14 05:03:51;;;;;;;;;;;;;;;1.34;100.00;98596.73;1682129;84;20145;-68
2022/01/14 05:06:18;;;;;;;;;;;;;;;1.33;100.00;98609.44;1672729;84;20170;-66
2022/01/14 05:08:44;;;;;;;;;;;;;;;1.31;100.00;98610.80;1662869;84;21759;-66
2022/01/14 05:13:47;;;;;;;;;;;;;;;1.29;100.00;98588.09;1658637;84;20185;-67
2022/01/14 05:16:13;;;;;;;;;;;;;;;1.28;100.00;98587.83;1660674;84;20122;-66
2022/01/14 05:18:40;;;;;;;;;;;;;;;1.28;100.00;98579.72;1664833;84;20117;-67
2022/01/14 05:21:07;;;;;;;;;;;;;;;1.29;100.00;98565.11;1672620;84;23282;-68
2022/01/14 05:23:34;;;;;;;;;;;;;;;1.28;100.00;98567.55;1673821;84;20134;-68
2022/01/14 05:26:00;;;;;;;;;;;;;;;1.28;100.00;98567.55;1671235;84;20088;-67
2022/01/14 05:28:26;;;;;;;;;;;;;;;1.25;100.00;98560.00;1666295;84;22198;-68
2022/01/14 05:30:53;;;;;;;;;;;;;;;1.29;100.00;98571.88;1660312;85;20280;-68
2022/01/14 05:33:19;;;;;;;;;;;;;;;1.30;100.00;98562.67;1676145;84;21025;-69
2022/01/14 05:35:45;;;;;;;;;;;;;;;1.30;100.00;98561.87;1671423;84;20549;-69
2022/01/14 05:38:11;;;;;;;;;;;;;;;1.31;100.00;98552.67;1669535;84;20170;-68
2022/01/14 05:40:38;;;;;;;;;;;;;;;1.32;100.00;98551.58;1654063;84;20122;-69
2022/01/14 05:43:04;;;;;;;;;;;;;;;1.32;100.00;98546.17;1658687;85;20415;-68
2022/01/14 05:45:32;;;;;;;;;;;;;;;1.32;100.00;98538.06;1663927;84;20690;-68
2022/01/14 05:47:58;;;;;;;;;;;;;;;1.34;100.00;98535.88;1656778;85;20117;-68
2022/01/14 05:50:25;;;;;;;;;;;;;;;1.35;100.00;98548.86;1660161;85;20173;-68
2022/01/14 05:52:51;;;;;;;;;;;;;;;1.37;100.00;98542.63;1653096;86;20122;-67
2022/01/14 05:55:19;;;;;;;;;;;;;;;1.36;100.00;98543.72;1677996;84;20423;-69
2022/01/14 05:57:45;;;;;;;;;;;;;;;1.36;100.00;98536.95;1672140;84;21125;-67
2022/01/14 06:00:13;;;;;;;;;;;;;;;1.37;100.00;98526.41;1672258;84;20145;-67
2022/01/14 06:02:46;;;;;;;;;;;;;;;1.38;100.00;98528.83;1659865;84;20147;-67
2022/01/14 06:05:12;;;;;;;;;;;;;;;1.37;100.00;98529.92;1662408;84;20230;-67
2022/01/14 06:07:38;;;;;;;;;;;;;;;1.39;100.00;98522.87;1664562;86;20325;-67
2022/01/14 06:10:06;;;;;;;;;;;;;;;1.40;100.00;98522.59;1667558;86;21234;-67
2022/01/14 06:12:33;;;;;;;;;;;;;;;1.41;100.00;98532.88;1663671;86;20464;-67
2022/01/14 06:15:00;;;;;;;;;;;;;;;1.40;100.00;98517.19;1668387;86;20496;-67
2022/01/14 06:17:27;;;;;;;;;;;;;;;1.40;100.00;98511.78;1663678;86;20460;-67
2022/01/14 06:19:53;;;;;;;;;;;;;;;1.42;100.00;98488.52;1654406;86;20150;-67
2022/01/14 06:22:20;;;;;;;;;;;;;;;1.44;100.00;98488.49;1649383;87;20464;-67
2022/01/14 06:24:46;;;;;;;;;;;;;;;1.46;100.00;98499.03;1648707;87;20466;-67
2022/01/14 06:27:12;;;;;;;;;;;;;;;1.44;100.00;98506.08;1649386;87;20183;-67
2022/01/14 06:29:38;;;;;;;;;;;;;;;1.46;100.00;98501.19;1652726;86;20207;-67
2022/01/14 06:32:07;;;;;;;;;;;;;;;1.48;100.00;98502.27;1649375;87;20118;-67
2022/01/14 06:34:34;;;;;;;;;;;;;;;1.47;100.00;98486.58;1649375;87;21140;-68
2022/01/14 06:37:00;;;;;;;;;;;;;;;1.48;100.00;98506.32;1649642;87;20118;-68
2022/01/14 06:39:27;;;;;;;;;;;;;;;1.51;100.00;98486.28;1649597;87;20469;-68
2022/01/14 06:41:55;;;;;;;;;;;;;;;1.51;100.00;98486.28;1649391;86;20456;-68
2022/01/14 06:44:21;;;;;;;;;;;;;;;1.52;100.00;98495.20;1662316;86;20157;-68
2022/01/14 06:46:48;;;;;;;;;;;;;;;1.55;100.00;98493.28;1660653;86;21135;-68
2022/01/14 06:49:14;;;;;;;;;;;;;;;1.56;100.00;98490.84;1649304;87;20130;-68
2022/01/14 06:51:40;;;;;;;;;;;;;;;1.56;100.00;98461.09;1619513;88;20105;-67
2022/01/14 06:54:06;;;;;;;;;;;;;;;1.57;100.00;98454.59;1661135;86;20175;-68
2022/01/14 06:56:33;;;;;;;;;;;;;;;1.58;100.00;98449.44;1661222;86;20158;-66
2022/01/14 06:59:00;;;;;;;;;;;;;;;1.61;100.00;98436.70;1661378;86;20552;-66
2022/01/14 07:01:26;;;;;;;;;;;;;;;1.63;100.00;98443.98;1652642;87;20130;-67
2022/01/14 07:03:52;;;;;;;;;;;;;;;1.62;100.00;98433.71;1661863;85;20179;-67
2022/01/14 07:06:19;;;;;;;;;;;;;;;1.61;100.00;98440.21;1667909;85;20117;-67
2022/01/14 07:08:45;;;;;;;;;;;;;;;1.60;100.00;98438.59;1685334;84;20125;-67
2022/01/14 07:11:12;;;;;;;;;;;;;;;1.61;100.00;98426.69;1666296;85;21132;-66
2022/01/14 07:13:38;;;;;;;;;;;;;;;1.65;100.00;98412.05;1670968;85;20084;-67
2022/01/14 07:16:05;;;;;;;;;;;;;;;1.68;100.00;98400.66;1659853;85;20225;-67
2022/01/14 07:18:32;;;;;;;;;;;;;;;1.69;100.00;98395.50;1666670;85;20160;-69
2022/01/14 07:20:58;;;;;;;;;;;;;;;1.68;100.00;98373.60;1658608;85;20240;-66
2022/01/14 07:23:25;;;;;;;;;;;;;;;1.72;100.00;98409.01;1665260;85;21792;-66
2022/01/14 07:25:51;;;;;;;;;;;;;;;1.73;100.00;98406.02;1664362;85;20156;-67
2022/01/14 07:28:19;;;;;;;;;;;;;;;1.74;100.00;98406.25;1650569;86;20211;-67
2022/01/14 07:30:45;;;;;;;;;;;;;;;1.75;100.00;98398.94;1661301;85;20111;-66
2022/01/14 07:33:11;;;;;;;;;;;;;;;1.74;100.00;98381.90;1676648;85;20430;-67
2022/01/14 07:35:39;;;;;;;;;;;;;;;1.77;100.00;98394.86;1667740;85;21154;-68
2022/01/14 07:38:07;;;;;;;;;;;;;;;1.77;100.00;98408.37;1649713;85;37719;-70
2022/01/14 07:40:33;;;;;;;;;;;;;;;1.77;100.00;98402.97;1666808;85;20146;-70
2022/01/14 07:42:59;;;;;;;;;;;;;;;1.78;100.00;98382.94;1670539;85;20140;-68
2022/01/14 07:45:26;;;;;;;;;;;;;;;1.81;100.00;98392.38;1676457;85;20452;-68
2022/01/14 07:47:53;;;;;;;;;;;;;;;1.80;100.00;98390.22;1662048;85;21213;-66
2022/01/14 07:50:19;;;;;;;;;;;;;;;1.78;100.00;98364.00;1662225;85;20117;-68
2022/01/14 07:52:45;;;;;;;;;;;;;;;1.80;100.00;98371.28;1678540;85;20137;-70
2022/01/14 07:55:11;;;;;;;;;;;;;;;1.82;100.00;98370.45;1667558;85;20205;-69
2022/01/14 07:57:37;;;;;;;;;;;;;;;1.81;100.00;98356.66;1674449;84;20179;-74
2022/01/14 08:00:06;;;;;;;;;;;;;;;1.82;100.00;98371.80;1663488;85;21158;-66
2022/01/14 08:02:34;;;;;;;;;;;;;;;1.84;100.00;98335.79;1670960;85;20154;-66
2022/01/14 08:05:02;;;;;;;;;;;;;;;1.85;100.00;98345.52;1676507;85;20120;-66
2022/01/14 08:07:29;;;;;;;;;;;;;;;1.88;100.00;98358.47;1652888;85;20154;-66
2022/01/14 08:09:56;;;;;;;;;;;;;;;1.89;100.00;98354.67;1660353;85;20108;-73
2022/01/14 08:12:22;;;;;;;;;;;;;;;1.91;100.00;98342.21;1655205;85;21745;-74
2022/01/14 08:14:49;;;;;;;;;;;;;;;1.91;100.00;98347.08;1655413;85;20129;-71
2022/01/14 08:17:18;;;;;;;;;;;;;;;1.94;100.00;98338.38;1670719;85;20419;-65
2022/01/14 08:19:44;;;;;;;;;;;;;;;1.98;100.00;98345.38;1674008;85;20129;-65
2022/01/14 08:22:10;;;;;;;;;;;;;;;1.99;100.00;98341.58;1673005;85;20454;-65
2022/01/14 08:24:36;;;;;;;;;;;;;;;2.02;100.00;98313.12;1665138;85;21052;-65
2022/01/14 08:27:06;;;;;;;;;;;;;;;2.06;100.00;98316.31;1659922;85;20117;-66
2022/01/14 08:29:33;;;;;;;;;;;;;;;2.09;100.00;98329.81;1632108;85;20159;-66
2022/01/14 08:32:00;;;;;;;;;;;;;;;2.10;100.00;98326.02;1628307;87;20184;-65
2022/01/14 08:34:27;;;;;;;;;;;;;;;2.11;100.00;98322.21;1640438;86;20203;-64
2022/01/14 08:36:53;;;;;;;;;;;;;;;2.14;100.00;98312.16;1638854;86;21176;-65
2022/01/14 08:39:20;;;;;;;;;;;;;;;2.16;100.00;98314.03;1648646;86;20131;-66
2022/01/14 08:41:46;;;;;;;;;;;;;;;2.15;100.00;98268.55;1652018;84;20423;-67
2022/01/14 08:44:14;;;;;;;;;;;;;;;2.16;100.00;98290.47;1652551;84;20130;-67
2022/01/14 08:46:47;;;;;;;;;;;;;;;2.18;100.00;98289.62;1644319;84;20169;-65
2022/01/14 08:49:14;;;;;;;;;;;;;;;2.19;100.00;98269.58;1653768;85;21158;-66
2022/01/14 08:51:41;;;;;;;;;;;;;;;2.19;100.00;98264.16;1636268;87;20147;-66
2022/01/14 08:54:08;;;;;;;;;;;;;;;2.21;100.00;98257.10;1631957;87;20076;-66
2022/01/14 08:56:35;;;;;;;;;;;;;;;2.21;100.00;98298.52;1588112;89;20147;-66
2022/01/14 08:59:01;;;;;;;;;;;;;;;2.24;100.00;98245.69;1650935;86;21650;-66
2022/01/14 09:01:28;;;;;;;;;;;;;;;2.25;100.00;98250.00;1651409;86;21175;-66
2022/01/14 09:03:56;;;;;;;;;;;;;;;2.29;100.00;98233.42;1642198;86;20145;-65
2022/01/14 09:06:22;;;;;;;;;;;;;;;2.27;100.00;98232.36;1658349;85;20437;-64
2022/01/14 09:08:50;;;;;;;;;;;;;;;2.29;100.00;98211.77;1653461;85;20108;-63
2022/01/14 09:11:16;;;;;;;;;;;;;;;2.30;100.00;98221.50;1649559;85;20126;-64
2022/01/14 09:13:43;;;;;;;;;;;;;;;2.30;100.00;98184.94;1660772;85;21154;-65
2022/01/14 09:16:09;;;;;;;;;;;;;;;2.30;100.00;98195.22;1655655;85;20429;-65
2022/01/14 09:18:35;;;;;;;;;;;;;;;2.32;100.00;98208.44;1606730;88;20131;-66
2022/01/14 09:21:01;;;;;;;;;;;;;;;2.35;99.98;98179.41;1654986;86;20447;-64
2022/01/14 09:23:29;;;;;;;;;;;;;;;2.37;100.00;98173.70;1659377;85;20087;-62
2022/01/14 09:25:55;;;;;;;;;;;;;;;2.38;99.81;98176.12;1648723;85;21230;-63
2022/01/14 09:28:22;;;;;;;;;;;;;;;2.39;99.41;98139.00;1663724;85;20133;-66
2022/01/14 09:30:48;;;;;;;;;;;;;;;2.40;99.25;98179.88;1614004;88;20106;-64
2022/01/14 09:33:17;;;;;;;;;;;;;;;2.44;98.90;98166.80;1651946;85;20145;-62
2022/01/14 09:35:44;;;;;;;;;;;;;;;2.46;98.83;98169.22;1665702;85;20272;-66
2022/01/14 09:38:11;;;;;;;;;;;;;;;2.47;99.03;98166.77;1656281;85;23288;-70
2022/01/14 09:40:38;;;;;;;;;;;;;;;2.47;98.71;98174.34;1666241;85;20145;-75
2022/01/14 09:43:04;;;;;;;;;;;;;;;2.47;98.53;98173.54;1613887;86;20238;-72
2022/01/14 09:45:31;;;;;;;;;;;;;;;2.48;98.58;98147.51;1648247;85;20181;-71
2022/01/14 09:47:58;;;;;;;;;;;;;;;2.49;98.72;98146.95;1640505;84;20484;-67
2022/01/14 09:50:25;;;;;;;;;;;;;;;2.48;98.55;98144.00;1630200;86;21177;-65
2022/01/14 09:52:51;;;;;;;;;;;;;;;2.50;98.54;98129.05;1633689;86;20189;-65
2022/01/14 09:55:20;;;;;;;;;;;;;;;2.53;98.61;98144.72;1627964;87;20474;-65
2022/01/14 09:57:47;;;;;;;;;;;;;;;2.54;98.75;98136.84;1615149;88;22180;-66
2022/01/14 10:00:14;;;;;;;;;;;;;;;2.56;98.67;98155.51;1677651;84;20336;-66
2022/01/14 10:02:43;;;;;;;;;;;;;;;2.55;98.68;98151.19;1670469;84;21107;-65
2022/01/14 10:05:11;;;;;;;;;;;;;;;2.55;98.87;98141.71;1670801;84;20100;-66
2022/01/14 10:07:37;;;;;;;;;;;;;;;2.55;99.18;98111.91;1664877;85;21096;-65
2022/01/14 10:10:23;;;;;;;;;;;;;;;2.54;99.16;98121.94;1672657;85;20179;-65
2022/01/14 10:12:50;;;;;;;;;;;;;;;2.55;99.31;98118.68;1659361;85;20213;-65
2022/01/14 10:15:16;;;;;;;;;;;;;;;2.53;100.00;98110.85;1639169;86;21205;-66
2022/01/14 10:17:43;;;;;;;;;;;;;;;2.54;100.00;98115.17;1659227;86;20101;-66
2022/01/14 10:20:13;;;;;;;;;;;;;;;2.53;100.00;98114.91;1666561;85;20550;-65
2022/01/14 10:22:45;;;;;;;;;;;;;;;2.55;100.00;98101.08;1666295;85;20186;-67
2022/01/14 10:25:16;;;;;;;;;;;;;;;2.54;100.00;98089.44;1670519;85;20446;-66
2022/01/14 10:27:45;;;;;;;;;;;;;;;2.54;100.00;98086.73;1605968;88;20633;-65
2022/01/14 10:30:15;;;;;;;;;;;;;;;2.55;100.00;98038.77;1673780;84;20148;-66
2022/01/14 10:32:42;;;;;;;;;;;;;;;2.54;100.00;98044.73;1666588;85;20184;-64
2022/01/14 10:35:10;;;;;;;;;;;;;;;2.56;100.00;98059.34;1677304;85;20181;-65
2022/01/14 10:37:37;;;;;;;;;;;;;;;2.56;100.00;98062.84;1680856;85;20211;-65
2022/01/14 10:40:05;;;;;;;;;;;;;;;2.57;100.00;98036.56;1679833;85;21165;-68
2022/01/14 10:42:34;;;;;;;;;;;;;;;2.57;100.00;98033.85;1669155;85;20181;-68
2022/01/14 10:45:27;;;;;;;;;;;;;;;2.58;100.00;98037.62;1670669;85;20190;-68
2022/01/14 10:47:58;;;;;;;;;;;;;;;2.59;100.00;98037.87;1619662;87;20704;-68
2022/01/14 10:50:31;;;;;;;;;;;;;;;2.59;100.00;98018.91;1687653;84;20127;-68
2022/01/14 10:52:57;;;;;;;;;;;;;;;2.59;100.00;98016.20;1689620;84;21156;-68
2022/01/14 10:55:34;;;;;;;;;;;;;;;2.61;100.00;97986.09;1688401;84;20517;-68
2022/01/14 10:58:03;;;;;;;;;;;;;;;2.60;100.00;98004.25;1691140;84;20419;-68
2022/01/14 11:00:38;;;;;;;;;;;;;;;2.61;100.00;97990.96;1674605;85;20211;-68
2022/01/14 11:03:04;;;;;;;;;;;;;;;2.61;100.00;97992.31;1695128;84;20152;-68
2022/01/14 11:05:32;;;;;;;;;;;;;;;2.63;100.00;97999.59;1683676;84;21164;-68
2022/01/14 11:07:58;;;;;;;;;;;;;;;2.64;100.00;97968.68;1677821;84;20152;-69
2022/01/14 11:10:29;;;;;;;;;;;;;;;2.67;100.00;97974.60;1677796;85;20155;-68
2022/01/14 11:12:56;;;;;;;;;;;;;;;2.67;100.00;97953.73;1665448;85;20217;-69
2022/01/14 11:15:23;;;;;;;;;;;;;;;2.69;100.00;97949.36;1652599;85;20148;-68
2022/01/14 11:17:53;;;;;;;;;;;;;;;2.72;100.00;97946.84;1650512;86;21859;-68
2022/01/14 11:23:14;;;;;;;;;;;;;;;2.76;100.00;97924.02;1649119;86;20134;-68
2022/01/14 11:25:39;;;;;;;;;;;;;;;2.85;99.68;97920.28;1671754;84;20193;-69
2022/01/14 11:28:06;;;;;;;;;;;;;;;2.89;98.96;97884.66;1654816;85;20257;-68
2022/01/14 11:30:36;;;;;;;;;;;;;;;2.92;98.24;97876.47;1638233;85;21154;-68
2022/01/14 11:33:02;;;;;;;;;;;;;;;2.95;97.84;97869.08;1659602;86;20488;-68
2022/01/14 11:35:29;;;;;;;;;;;;;;;2.98;97.59;97871.98;1660726;86;20194;-68
2022/01/14 11:37:55;;;;;;;;;;;;;;;3.02;97.14;97836.92;1658157;86;20185;-68
2022/01/14 11:40:21;;;;;;;;;;;;;;;3.04;96.52;97855.04;1635796;85;20253;-68
2022/01/14 11:42:51;;;;;;;;;;;;;;;3.09;96.72;97822.39;1668500;85;21151;-68
2022/01/14 11:45:19;;;;;;;;;;;;;;;3.08;96.19;97795.03;1653880;85;20205;-68
2022/01/14 11:47:51;;;;;;;;;;;;;;;3.10;95.94;97792.81;1654171;85;20627;-68
2022/01/14 11:50:27;;;;;;;;;;;;;;;3.12;96.24;97808.21;1675009;85;20980;-68
2022/01/14 11:52:53;;;;;;;;;;;;;;;3.16;95.25;97799.70;1664050;85;20205;-68
2022/01/14 11:55:34;;;;;;;;;;;;;;;3.19;94.87;97791.51;1651398;86;21865;-68
2022/01/14 11:58:09;;;;;;;;;;;;;;;3.21;95.37;97781.95;1678128;84;20266;-68
2022/01/14 12:00:41;;;;;;;;;;;;;;;3.25;95.09;97775.35;1672282;84;20221;-68
2022/01/14 12:03:14;;;;;;;;;;;;;;;3.26;94.37;97766.91;1658228;85;20593;-68
2022/01/14 12:05:53;;;;;;;;;;;;;;;3.27;94.37;97798.34;1652347;86;20679;-68
2022/01/14 12:08:29;;;;;;;;;;;;;;;3.28;94.01;97772.82;1669758;84;21164;-69
2022/01/14 12:10:59;;;;;;;;;;;;;;;3.27;93.79;97758.22;1677468;84;20295;-68
2022/01/14 12:13:38;;;;;;;;;;;;;;;3.27;94.18;97758.22;1637311;86;20146;-68
2022/01/14 12:16:11;;;;;;;;;;;;;;;3.21;94.16;97752.13;1675262;84;20209;-68
2022/01/14 12:19:02;;;;;;;;;;;;;;;3.20;94.33;97726.12;1665904;84;20343;-67
2022/01/14 12:21:51;;;;;;;;;;;;;;;3.19;94.52;97729.94;1663509;84;21157;-68
2022/01/14 12:24:21;;;;;;;;;;;;;;;3.19;94.62;97748.12;1662405;85;20429;-68
2022/01/14 12:27:04;;;;;;;;;;;;;;;3.15;94.96;97722.19;1661996;85;20132;-68
2022/01/14 12:29:38;;;;;;;;;;;;;;;3.11;95.20;97726.62;1673113;84;20194;-68
2022/01/14 12:32:13;;;;;;;;;;;;;;;3.08;95.49;97723.73;1667228;84;20164;-68
2022/01/14 12:34:46;;;;;;;;;;;;;;;3.06;95.98;97743.03;1671686;84;20639;-68
2022/01/14 12:37:15;;;;;;;;;;;;;;;3.10;95.73;97735.08;1652357;85;20201;-68
2022/01/14 12:39:42;;;;;;;;;;;;;;;3.10;95.68;97717.45;1671226;84;20221;-68
2022/01/14 12:42:09;;;;;;;;;;;;;;;3.07;95.96;97705.31;1670758;85;22114;-69
2022/01/14 12:44:40;;;;;;;;;;;;;;;3.10;96.42;97710.67;1657983;85;20165;-68
2022/01/14 12:47:08;;;;;;;;;;;;;;;3.11;96.03;97679.19;1647059;84;22079;-69
2022/01/14 12:49:39;;;;;;;;;;;;;;;3.12;96.44;97697.05;1629243;86;20156;-69
2022/01/14 12:52:09;;;;;;;;;;;;;;;3.17;95.98;97686.63;1640194;86;20198;-68
2022/01/14 12:54:41;;;;;;;;;;;;;;;3.16;95.80;97681.76;1644610;86;20882;-68
2022/01/14 12:57:08;;;;;;;;;;;;;;;3.15;96.63;97695.07;1656891;85;20180;-68
2022/01/14 12:59:46;;;;;;;;;;;;;;;3.17;96.56;97679.84;1639098;84;21182;-68
2022/01/14 13:02:22;;;;;;;;;;;;;;;3.15;96.81;97669.87;1626403;87;20227;-67
2022/01/14 13:05:21;;;;;;;;;;;;;;;3.13;97.79;97663.95;1644189;86;20118;-67
2022/01/14 13:07:48;;;;;;;;;;;;;;;3.10;98.51;97653.19;1647798;85;20211;-68
2022/01/14 13:10:16;;;;;;;;;;;;;;;3.10;98.92;97676.23;1633156;86;20213;-68
2022/01/14 13:12:44;;;;;;;;;;;;;;;3.13;99.15;97635.49;1648061;85;21149;-68
2022/01/14 13:15:20;;;;;;;;;;;;;;;3.13;99.04;97650.40;1633267;88;20508;-68
2022/01/14 13:18:03;;;;;;;;;;;;;;;3.13;99.68;97651.20;1635456;86;20207;-68
2022/01/14 13:20:30;;;;;;;;;;;;;;;3.13;99.72;97637.64;1640464;86;20219;-68
2022/01/14 13:22:57;;;;;;;;;;;;;;;3.13;99.63;97626.80;1641634;86;20204;-68
2022/01/14 13:25:28;;;;;;;;;;;;;;;3.14;100.00;97640.59;1646592;86;21077;-67